Airfield :
LOGIN :

Register | Disclaimer

   EN    FR    IT 

 










Legend :    VFR   Marginal VFR   IFR   Intensive IFR   Very Intensive IFR
Visi :
Ceiling :
>= 8 km
>= 3000ft
5 to 8 km
1000 to 3000 ft
1500m to 5 km
500 to 1000 ft
800 to 1500m
200 to 500 ft
< 800m
< 200 ft
Symbols :   Thunderstorms  Fog  Heavy snow  Heavy precipitations  Wind > 20 kt
SIGMETs :     Misc.  Thunderstorms  Icing  Turbulence  Mountain Waves  Volcanic Ashes







- Airport Elevation : 446 ft
- IATA code : VNE
- Download approach charts


LFRV - Vannes-Meucon

CURRENT METAR :
  • 120230Z AUTO 11007KT 3900 -RA BR FEW007/// SCT013/// BKN031/// ///TCU 04/04 Q1019

EXPIRED METARs :
  • 120200Z AUTO 13007KT 4300 -RA BR FEW007/// BKN016/// BKN031/// ///CB 04/04 Q1019
  • 120130Z AUTO 13007KT 7000 -RA BKN030/// BKN054/// BKN064/// ///TCU 04/03 Q1019
  • 120100Z AUTO 12008KT 6000 -RA FEW047/// BKN062/// OVC074/// ///CB 04/03 Q1019
  • 120030Z AUTO 11008KT 5000 BR FEW005/// SCT011/// BKN064/// ///CB 04/04 Q1019
  • 120000Z AUTO 12007KT 5000 BR FEW006/// SCT037/// BKN064/// ///TCU 05/04 Q1019

TAF N/A
No reported NOTAMs for that airfield.
3 SIGMETs reported for the Brest FIR (LFRR) :
 
Severe turbulence
LFRR SIGMET 3 VALID 120000/120400 LFPW
LFRR BREST FIR/UIR SEV TURB FCST WI N4830 W00800 - N4900 W00800 - N4915 W00715 - N4730 W00600 - N4715 W00715 - N4830 W00800 FL170/280 MOV E 15KT INTSF=
SIGMET 1  cancelation
LFRR SIGMET 2 VALID 112220/120400 LFPW
LFRR BREST FIR/UIR CNL SIGMET 1 120000/120400=
SIGMET 1  CANCELED :
Severe turbulence
LFRR SIGMET 1 VALID 120000/120400 LFPW
LFRR BREST FIR/UIR SEV TURB FCST WI N4830 W00800 - N4900 W00800 - N4915 W00715 - N4800 W00630 - N4730 W00700 - N4830 W00800 FL170/280 MOV E 15KT INTSF=



MET'MAP, your aeronautical weather chart ! - Copyright ORBIFLY December 2007 - Disclaimer

ORBIFLY MET'MAP TEAM :

Programming & Development : Alexandra Zaïnal
Concept & Development : Baudouin d'Aumeries
Co-Development & Prog : Marc-Olivier Méhu
Technical & hardware support : Manuel Goepfert

Contact : metmap@orbifly.com




SOURCES & CREDITS :

   NOAA